aviador You're here:

KVIS Decoded Metar

VISALIA MUNI in CA, USA
Report Time2018-06-23 12:56:00
UTC Time2018-06-23 13:47:00
Flight Rules vfr VFR
Wind120° at 04 kt
W.Decomp.*RWY 12: 3.9 kt HW 1 kt LCW
W.Rank120° ranks 7
Current wind is below 120° avg. (4.4)
Visibility9999 m
Phenomena:N/A
Clouds:N/A
Expected CloudBase > 1,600 ft AGL from Temp-Dew spread
CeilingNone
Temp18°C (ISA +4)
Dew Point14°C (78% RH)
AAT17.9°C
QNH1007 hPa
Density Alt1,129 ft
Elevation292 ft
Report Wrong Elevation
Raw Report
KVIS 231256Z AUTO 12004KT 10SM CLR 18/14 A2975 RMK AO2 SLP077
T01780144=

Extra information for KVIS:More info

Metar Taf Metar & Taf Last 4 Metars F.Rules Stats Wind Profile Meteogram Temp Stats Airport Information Weather charts Add Link Nearby VenuesMetar ALERT Operation Metar Decoded Social comments

AIRNAV info for KVIS